KTDZ/TDZ METAR and TAF weather

Enter ICAO airport designator
Station Type Date Time Source
KTDZ METAR 2021/01/20 21:53 UTC NOAA

KTDZ 202153Z AUTO 22013KT 10SM BKN026 M03/M08 A3008 RMK AO2 SLP193 T10281078 $


Station Type Date Time Source
KTDZ Decoded METAR 2021/01/20 21:53 UTC NOAA

TOLEDO METCALF FIELD, OH, United States (KTDZ) 41-34N 83-29W 189M
Jan 20, 2021 - 04:53 PM EST / 2021.01.20 2153 UTC
Wind: from the SW (220 degrees) at 15 MPH (13 KT):0
Visibility: 10 mile(s):0
Sky conditions: mostly cloudy
Temperature: 27.0 F (-2.8 C)
Windchill: 15 F (-9 C):1
Dew Point: 18.0 F (-7.8 C)
Relative Humidity: 68%
Pressure (altimeter): 30.08 in. Hg (1018 hPa)
ob: KTDZ 202153Z AUTO 22013KT 10SM BKN026 M03/M08 A3008 RMK AO2 SLP193 T10281078
cycle: 22

Station Type Date Time Source
KTDZ TAF UTC NOAA

Error!

Example: see airport list